Time;durP1;ratioP1;P1;durP2;ratioP2;P2;SDS_P1;SDS_P2;PMS_P1;PMS_P2;Temp;Humidity;BMP_temperature;BMP_pressure;BME280_temperature;BME280_humidity;BME280_pressure;Samples;Min_cycle;Max_cycle;Signal;HPM_P1;HPM_P2
2023/11/04 00:02:10;;;;;;;1.60;0.70;;;;;;;9.85;89.36;97470.12;130451;1256;107786;-78
2023/11/04 00:05:16;;;;;;;1.20;0.60;;;;;;;9.81;88.88;97482.31;130572;1260;107707;-79
2023/11/04 00:08:21;;;;;;;0.70;0.50;;;;;;;9.76;89.20;97494.80;130511;1258;108565;-78
2023/11/04 00:11:27;;;;;;;1.00;0.70;;;;;;;9.68;89.04;97502.77;130504;1272;107433;-78
2023/11/04 00:14:32;;;;;;;1.10;0.70;;;;;;;9.64;88.69;97504.83;130554;1258;107459;-77
2023/11/04 00:17:38;;;;;;;1.20;0.50;;;;;;;9.57;88.46;97515.48;130508;1261;106578;-77
2023/11/04 00:20:44;;;;;;;1.20;0.60;;;;;;;9.56;88.67;97531.30;130512;1261;106360;-77
2023/11/04 00:23:50;;;;;;;1.70;0.60;;;;;;;9.54;88.55;97542.41;130521;1258;108376;-77
2023/11/04 00:26:55;;;;;;;1.00;0.70;;;;;;;9.48;88.75;97560.45;130496;1261;107855;-78
2023/11/04 00:30:01;;;;;;;1.10;0.70;;;;;;;9.41;88.21;97574.78;130506;1261;108513;-78
2023/11/04 00:33:07;;;;;;;0.90;0.70;;;;;;;9.33;88.70;97585.70;130495;1263;106350;-78
2023/11/04 00:36:13;;;;;;;2.60;0.60;;;;;;;9.27;88.62;97589.79;130450;1271;107145;-78
2023/11/04 00:39:18;;;;;;;0.90;0.50;;;;;;;9.22;88.33;97601.90;130552;1257;106150;-78
2023/11/04 00:42:24;;;;;;;1.20;0.70;;;;;;;9.19;88.23;97612.15;130388;1260;107680;-78
2023/11/04 00:45:30;;;;;;;2.00;0.70;;;;;;;9.17;88.04;97620.21;130543;1258;107527;-78
2023/11/04 00:48:35;;;;;;;0.80;0.50;;;;;;;9.10;87.44;97633.34;130488;1256;107721;-77
2023/11/04 00:51:41;;;;;;;3.00;0.70;;;;;;;9.04;87.46;97644.70;130583;1261;106900;-77
2023/11/04 00:54:46;;;;;;;1.40;0.40;;;;;;;9.00;87.40;97654.39;130526;1260;106412;-77
2023/11/04 00:57:52;;;;;;;2.20;1.10;;;;;;;8.93;87.38;97662.05;130572;1260;106851;-78
2023/11/04 01:00:58;;;;;;;0.90;0.50;;;;;;;8.89;87.63;97675.59;130513;1258;108133;-77
2023/11/04 01:04:03;;;;;;;1.00;0.60;;;;;;;8.88;87.76;97681.85;130554;1260;106621;-77
2023/11/04 01:07:09;;;;;;;0.90;0.80;;;;;;;8.91;87.50;97680.63;130583;1261;107739;-77
2023/11/04 01:10:15;;;;;;;1.70;0.60;;;;;;;8.92;87.45;97692.48;130481;1261;107085;-76
2023/11/04 01:13:21;;;;;;;2.10;0.70;;;;;;;8.93;87.46;97688.49;130479;1261;107594;-77
2023/11/04 01:16:26;;;;;;;1.30;0.70;;;;;;;8.90;87.16;97699.90;130474;1260;107814;-77
2023/11/04 01:19:32;;;;;;;1.30;0.70;;;;;;;8.85;87.20;97707.46;130409;1260;107636;-77
2023/11/04 01:22:38;;;;;;;0.90;0.40;;;;;;;8.81;87.00;97711.96;130508;1256;108445;-77
2023/11/04 01:25:44;;;;;;;1.00;0.50;;;;;;;8.79;87.14;97711.05;130446;1272;106424;-76
2023/11/04 01:28:49;;;;;;;0.90;0.50;;;;;;;8.79;86.88;97712.73;130494;1262;106999;-77
2023/11/04 01:31:55;;;;;;;0.60;0.50;;;;;;;8.79;86.66;97719.77;130527;1260;107808;-77
2023/11/04 01:35:01;;;;;;;0.50;0.40;;;;;;;8.80;86.79;97722.15;130514;1257;107945;-77
2023/11/04 01:38:06;;;;;;;0.90;0.60;;;;;;;8.81;86.73;97726.04;130444;1256;107031;-79
2023/11/04 01:41:12;;;;;;;0.90;0.50;;;;;;;8.80;86.80;97726.90;130428;1262;106842;-79
2023/11/04 01:44:17;;;;;;;1.50;0.50;;;;;;;8.80;86.79;97727.67;130699;1260;106277;-77
2023/11/04 01:47:23;;;;;;;1.50;0.50;;;;;;;8.77;86.65;97725.49;130561;1260;107809;-77
2023/11/04 01:50:28;;;;;;;2.20;0.70;;;;;;;8.77;86.73;97727.55;130535;1260;107820;-77
2023/11/04 01:53:36;;;;;;;1.10;0.60;;;;;;;8.76;86.46;97720.89;130572;1257;108888;-77
2023/11/04 01:56:43;;;;;;;0.70;0.50;;;;;;;8.75;86.47;97721.27;130530;1257;107173;-77
2023/11/04 01:59:48;;;;;;;1.20;0.50;;;;;;;8.75;86.80;97714.91;130489;1258;108220;-77
2023/11/04 02:02:55;;;;;;;1.90;0.70;;;;;;;8.79;86.60;97716.58;130521;1260;107783;-77
2023/11/04 02:06:02;;;;;;;1.40;0.60;;;;;;;8.80;86.89;97716.73;130570;1262;108446;-77
2023/11/04 02:09:09;;;;;;;3.00;0.80;;;;;;;8.80;86.71;97713.88;130549;1256;106578;-77
2023/11/04 02:12:15;;;;;;;1.20;0.80;;;;;;;8.77;86.78;97715.80;130516;1256;108711;-77
2023/11/04 02:15:21;;;;;;;1.00;0.70;;;;;;;8.76;86.93;97729.02;130514;1262;108457;-77
2023/11/04 02:18:27;;;;;;;1.00;0.60;;;;;;;8.73;86.70;97731.96;130471;1256;106900;-77
2023/11/04 02:21:33;;;;;;;1.10;0.80;;;;;;;8.71;86.79;97737.32;130813;1260;107499;-77
2023/11/04 02:24:39;;;;;;;2.30;1.40;;;;;;;8.69;86.76;97743.73;130552;1256;108490;-77
2023/11/04 02:27:46;;;;;;;2.10;1.10;;;;;;;8.70;86.84;97750.04;130486;1255;108749;-78
2023/11/04 02:30:51;;;;;;;1.50;1.10;;;;;;;8.72;86.76;97755.31;130468;1260;106995;-77
2023/11/04 02:33:57;;;;;;;1.30;1.00;;;;;;;8.70;86.77;97755.67;130553;1261;106865;-77
2023/11/04 02:37:03;;;;;;;1.30;1.20;;;;;;;8.69;86.68;97755.55;130549;1257;106848;-77
2023/11/04 02:40:11;;;;;;;1.50;1.10;;;;;;;8.62;86.78;97761.48;130398;1257;107848;-77
2023/11/04 02:43:16;;;;;;;1.80;1.20;;;;;;;8.62;86.88;97765.89;130775;1258;108395;-77
2023/11/04 02:46:22;;;;;;;1.50;1.20;;;;;;;8.68;86.76;97771.80;130558;1257;107477;-77
2023/11/04 02:49:28;;;;;;;1.90;1.30;;;;;;;8.71;86.83;97781.65;130501;1261;106297;-77
2023/11/04 02:52:34;;;;;;;1.50;1.40;;;;;;;8.71;86.59;97786.41;130576;1260;106934;-77
2023/11/04 02:55:39;;;;;;;2.00;1.30;;;;;;;8.70;86.56;97794.70;130471;1260;107756;-78
2023/11/04 02:58:45;;;;;;;1.30;1.20;;;;;;;8.65;86.30;97798.16;130598;1260;108689;-77
2023/11/04 03:01:50;;;;;;;3.90;1.30;;;;;;;8.62;86.60;97800.08;130593;1258;107935;-77
2023/11/04 03:04:56;;;;;;;2.60;1.40;;;;;;;8.62;86.54;97797.96;130519;1260;106732;-77
2023/11/04 03:08:02;;;;;;;2.80;1.00;;;;;;;8.63;86.71;97800.89;130547;1259;107587;-77
2023/11/04 03:11:08;;;;;;;2.40;1.20;;;;;;;8.67;86.72;97805.48;130575;1257;108602;-77
2023/11/04 03:14:13;;;;;;;1.90;1.50;;;;;;;8.70;86.56;97811.88;130557;1261;107753;-78
2023/11/04 03:17:19;;;;;;;1.50;1.30;;;;;;;8.71;86.54;97821.04;130560;1260;108659;-77
2023/11/04 03:20:25;;;;;;;3.40;1.50;;;;;;;8.71;86.56;97825.83;130598;1260;108746;-77
2023/11/04 03:23:31;;;;;;;1.90;1.30;;;;;;;8.67;86.24;97827.86;130559;1260;106937;-79
2023/11/04 03:26:37;;;;;;;2.70;1.40;;;;;;;8.64;86.53;97832.48;130514;1261;108622;-78
2023/11/04 03:29:42;;;;;;;2.30;1.50;;;;;;;8.65;86.68;97841.23;130405;1259;108391;-78
2023/11/04 03:32:48;;;;;;;2.10;1.20;;;;;;;8.69;86.61;97846.80;130477;1261;106970;-78
2023/11/04 03:35:54;;;;;;;1.40;1.20;;;;;;;8.73;86.34;97851.23;130485;1260;107910;-78
2023/11/04 03:38:59;;;;;;;2.60;1.40;;;;;;;8.75;86.47;97851.85;130569;1261;106463;-78
2023/11/04 03:42:05;;;;;;;1.80;1.50;;;;;;;8.74;86.34;97854.27;130529;1256;106695;-78
2023/11/04 03:45:12;;;;;;;2.00;1.50;;;;;;;8.74;86.47;97861.23;130581;1271;106504;-78
2023/11/04 03:48:17;;;;;;;1.70;1.10;;;;;;;8.72;86.35;97864.80;130465;1261;107649;-78
2023/11/04 03:51:25;;;;;;;2.40;1.50;;;;;;;8.73;86.48;97872.70;130540;1256;106393;-78
2023/11/04 03:54:33;;;;;;;3.10;1.40;;;;;;;8.76;86.66;97878.27;130572;1261;107099;-78
2023/11/04 03:57:39;;;;;;;1.60;1.10;;;;;;;8.80;86.54;97882.83;130582;1257;107697;-77
2023/11/04 04:00:45;;;;;;;2.40;1.50;;;;;;;8.84;86.35;97887.14;130496;1260;108046;-78
2023/11/04 04:03:51;;;;;;;1.90;1.20;;;;;;;8.83;86.38;97891.17;130552;1257;108424;-78
2023/11/04 04:06:56;;;;;;;5.00;1.60;;;;;;;8.82;86.43;97899.77;130497;1260;107129;-77
2023/11/04 04:10:02;;;;;;;2.20;1.30;;;;;;;8.81;86.33;97901.77;130515;1260;107803;-78
2023/11/04 04:13:08;;;;;;;2.50;1.30;;;;;;;8.81;86.35;97903.74;130457;1260;107604;-78
2023/11/04 04:16:14;;;;;;;3.30;1.40;;;;;;;8.86;86.38;97908.05;130421;1260;106935;-78
2023/11/04 04:19:19;;;;;;;1.70;1.40;;;;;;;8.91;86.55;97914.65;130307;1258;106612;-79
2023/11/04 04:22:25;;;;;;;2.10;1.40;;;;;;;8.93;86.37;97922.02;130570;1255;107700;-78
2023/11/04 04:25:30;;;;;;;3.60;2.00;;;;;;;8.92;86.44;97928.66;130661;1255;107152;-80
2023/11/04 04:28:37;;;;;;;8.90;5.50;;;;;;;8.89;86.39;97936.58;130775;1256;106426;-77
2023/11/04 04:31:42;;;;;;;2.50;1.70;;;;;;;8.86;86.35;97936.93;130772;1257;107623;-77
2023/11/04 04:34:48;;;;;;;4.20;3.40;;;;;;;8.83;86.36;97934.07;130701;1256;105722;-78
2023/11/04 04:37:54;;;;;;;4.60;2.10;;;;;;;8.84;86.39;97935.22;130622;1255;109335;-77
2023/11/04 04:41:00;;;;;;;2.40;1.80;;;;;;;8.86;86.36;97937.67;130619;1260;108129;-78
2023/11/04 04:44:07;;;;;;;1.80;1.50;;;;;;;8.89;86.33;97947.84;130636;1261;106427;-79
2023/11/04 04:47:14;;;;;;;2.40;1.70;;;;;;;8.93;85.96;97947.92;130577;1260;106741;-78
2023/11/04 04:50:19;;;;;;;3.50;1.80;;;;;;;8.94;86.02;97945.85;130494;1257;107791;-79
2023/11/04 04:53:28;;;;;;;2.00;1.80;;;;;;;8.90;86.14;97949.11;130513;1260;108671;-78
2023/11/04 04:56:34;;;;;;;2.10;1.60;;;;;;;8.87;86.16;97951.70;130561;1257;107756;-79
2023/11/04 04:59:39;;;;;;;1.80;1.40;;;;;;;8.82;86.25;97953.70;130465;1261;107468;-78
2023/11/04 05:02:45;;;;;;;2.50;1.70;;;;;;;8.81;86.11;97961.95;130765;1258;106340;-77
2023/11/04 05:05:50;;;;;;;69.20;21.10;;;;;;;8.85;86.34;97974.41;130483;1257;106297;-78
2023/11/04 05:08:56;;;;;;;13.90;5.90;;;;;;;8.91;86.30;97976.00;130952;1256;107557;-78
2023/11/04 05:12:02;;;;;;;7.50;5.10;;;;;;;8.94;85.99;97978.36;130840;1256;107390;-78
2023/11/04 05:15:11;;;;;;;3.60;2.70;;;;;;;8.94;85.93;97983.37;130397;1255;106542;-79
2023/11/04 05:18:17;;;;;;;6.60;3.00;;;;;;;8.91;86.18;97990.80;130516;1256;107787;-79
2023/11/04 05:21:26;;;;;;;3.70;2.00;;;;;;;8.90;86.11;97995.05;130356;1260;109616;-80
2023/11/04 05:24:31;;;;;;;3.90;3.20;;;;;;;8.86;86.06;98001.09;131029;1257;106432;-76
2023/11/04 05:27:37;;;;;;;3.40;2.30;;;;;;;8.86;86.18;98005.38;130608;1256;107918;-76
2023/11/04 05:30:42;;;;;;;16.20;10.80;;;;;;;8.90;86.06;98007.24;130606;1260;106342;-75
2023/11/04 05:33:48;;;;;;;5.00;2.80;;;;;;;8.93;85.99;98013.34;130876;1257;106619;-77
2023/11/04 05:36:54;;;;;;;4.20;2.20;;;;;;;8.93;85.74;98021.09;130681;1257;108507;-75
2023/11/04 05:39:59;;;;;;;3.60;2.60;;;;;;;8.93;85.94;98021.13;130911;1256;109331;-74
2023/11/04 05:43:05;;;;;;;2.80;2.40;;;;;;;8.89;85.65;98034.20;134631;1256;107808;-75
2023/11/04 05:46:11;;;;;;;3.40;2.30;;;;;;;8.86;85.72;98042.73;134567;1256;108718;-75
2023/11/04 05:49:16;;;;;;;49.00;16.30;;;;;;;8.84;85.78;98046.83;134659;1255;108536;-75
2023/11/04 05:52:22;;;;;;;19.60;9.50;;;;;;;8.85;86.01;98052.43;134655;1255;106242;-75
2023/11/04 05:55:28;;;;;;;30.60;12.20;;;;;;;8.92;85.99;98061.30;132230;1256;108443;-73
2023/11/04 05:58:33;;;;;;;15.60;6.30;;;;;;;8.99;85.75;98068.74;130489;1260;106926;-74
2023/11/04 06:01:39;;;;;;;19.80;13.70;;;;;;;9.02;85.66;98067.98;130468;1256;105703;-75
2023/11/04 06:04:44;;;;;;;5.00;3.40;;;;;;;9.06;85.71;98070.42;130520;1261;108157;-75
2023/11/04 06:07:50;;;;;;;2.40;1.80;;;;;;;9.07;85.63;98070.63;130482;1260;107732;-74
2023/11/04 06:10:56;;;;;;;4.30;2.90;;;;;;;9.05;85.65;98078.80;130514;1259;106647;-72
2023/11/04 06:14:02;;;;;;;4.20;2.70;;;;;;;9.08;85.61;98079.18;130463;1260;107084;-70
2023/11/04 06:17:08;;;;;;;3.60;2.90;;;;;;;9.12;85.59;98084.70;130446;1260;106514;-72
2023/11/04 06:20:14;;;;;;;3.80;3.30;;;;;;;9.14;85.68;98091.98;130725;1260;108257;-80
2023/11/04 06:23:20;;;;;;;64.00;21.50;;;;;;;9.17;85.26;98100.15;130719;1256;107749;-81
2023/11/04 06:26:26;;;;;;;6.00;3.40;;;;;;;9.16;85.44;98100.14;130670;1257;108637;-80
2023/11/04 06:29:31;;;;;;;8.00;4.80;;;;;;;9.14;85.37;98103.45;130465;1260;107206;-77
2023/11/04 06:32:37;;;;;;;6.60;3.90;;;;;;;9.13;85.57;98106.02;130606;1259;108573;-79
2023/11/04 06:35:43;;;;;;;3.60;2.10;;;;;;;9.08;85.02;98112.09;131042;1260;107955;-79
2023/11/04 06:38:48;;;;;;;6.20;3.70;;;;;;;9.08;85.27;98121.14;131060;1260;107727;-79
2023/11/04 06:41:55;;;;;;;7.20;4.30;;;;;;;9.08;85.19;98128.23;130497;1257;106203;-79
2023/11/04 06:45:00;;;;;;;25.10;17.70;;;;;;;9.10;85.16;98129.25;130590;1256;106201;-80
2023/11/04 06:48:06;;;;;;;84.70;55.50;;;;;;;9.11;85.12;98131.23;130621;1256;107051;-79
2023/11/04 06:51:17;;;;;;;72.70;43.20;;;;;;;9.13;85.21;98137.91;130654;1260;107264;-78
2023/11/04 06:54:23;;;;;;;24.90;20.50;;;;;;;9.13;84.87;98140.95;130539;1261;107664;-79
2023/11/04 06:57:28;;;;;;;43.70;38.80;;;;;;;9.10;85.05;98144.27;130333;1260;107832;-78
2023/11/04 07:00:34;;;;;;;12.10;10.90;;;;;;;9.11;85.02;98142.77;130551;1261;108391;-77
2023/11/04 07:03:40;;;;;;;22.40;14.50;;;;;;;9.14;85.02;98148.11;130671;1261;107278;-76
2023/11/04 07:06:50;;;;;;;10.80;7.90;;;;;;;9.19;85.11;98146.83;130475;1261;108589;-78
2023/11/04 07:09:56;;;;;;;7.80;5.90;;;;;;;9.28;85.13;98145.37;130506;1261;106878;-77
2023/11/04 07:13:02;;;;;;;6.70;5.20;;;;;;;9.34;84.80;98142.15;130499;1261;106690;-78
2023/11/04 07:16:09;;;;;;;6.10;3.90;;;;;;;9.37;84.87;98144.72;130545;1261;107507;-77
2023/11/04 07:19:16;;;;;;;4.50;2.80;;;;;;;9.40;84.79;98150.46;130592;1257;107236;-78
2023/11/04 07:22:21;;;;;;;3.80;2.50;;;;;;;9.42;85.00;98156.08;130577;1255;106783;-78
2023/11/04 07:25:27;;;;;;;4.10;2.00;;;;;;;9.48;84.91;98162.05;130454;1258;106364;-77
2023/11/04 07:28:35;;;;;;;4.00;2.20;;;;;;;9.55;84.77;98170.92;130559;1261;106685;-78
2023/11/04 07:31:41;;;;;;;4.60;2.40;;;;;;;9.59;84.54;98179.02;130628;1256;106904;-78
2023/11/04 07:34:47;;;;;;;4.50;2.30;;;;;;;9.66;84.74;98185.27;130497;1259;106630;-78
2023/11/04 07:37:53;;;;;;;3.70;2.30;;;;;;;9.74;84.78;98185.23;130606;1257;106732;-80
2023/11/04 07:40:58;;;;;;;3.40;2.40;;;;;;;9.81;84.47;98188.26;130467;1261;106891;-78
2023/11/04 07:44:04;;;;;;;3.60;2.40;;;;;;;9.86;84.39;98189.45;130528;1260;107034;-78
2023/11/04 07:47:10;;;;;;;3.80;2.50;;;;;;;9.91;84.26;98187.14;130449;1261;107687;-78
2023/11/04 07:50:15;;;;;;;3.20;2.50;;;;;;;9.94;84.12;98184.84;130600;1260;108676;-78
2023/11/04 07:53:21;;;;;;;3.90;2.00;;;;;;;9.99;84.16;98181.67;130594;1262;107282;-78
2023/11/04 07:56:27;;;;;;;3.90;2.20;;;;;;;10.09;84.19;98178.09;130606;1257;107324;-78
2023/11/04 07:59:33;;;;;;;3.20;2.10;;;;;;;10.17;83.92;98171.98;130524;1262;106990;-78
2023/11/04 08:02:39;;;;;;;4.40;2.70;;;;;;;10.25;83.87;98162.46;130477;1260;106933;-78
2023/11/04 08:05:46;;;;;;;4.40;2.30;;;;;;;10.33;83.96;98161.39;130503;1260;108987;-78
2023/11/04 08:08:52;;;;;;;3.40;2.30;;;;;;;10.43;83.93;98154.81;130552;1260;108625;-78
2023/11/04 08:11:57;;;;;;;3.00;2.10;;;;;;;10.51;83.98;98159.38;130530;1262;106418;-77
2023/11/04 08:15:04;;;;;;;3.30;2.20;;;;;;;10.57;83.69;98166.39;130499;1260;106749;-78
2023/11/04 08:18:10;;;;;;;5.70;2.90;;;;;;;10.54;83.84;98166.48;130732;1260;108483;-78
2023/11/04 08:21:17;;;;;;;8.20;2.90;;;;;;;10.48;83.53;98172.48;130473;1260;108189;-77
2023/11/04 08:24:23;;;;;;;5.40;2.70;;;;;;;10.40;83.83;98178.84;130652;1260;108689;-78
2023/11/04 08:27:29;;;;;;;6.10;3.30;;;;;;;10.35;83.40;98172.57;130516;1258;107760;-79
2023/11/04 08:30:34;;;;;;;8.00;3.30;;;;;;;10.33;83.89;98173.58;130697;1260;108111;-78
2023/11/04 08:33:40;;;;;;;6.50;3.10;;;;;;;10.36;83.59;98175.52;130613;1260;108592;-80
2023/11/04 08:36:46;;;;;;;6.00;3.00;;;;;;;10.39;83.36;98173.39;130669;1256;106691;-80
2023/11/04 08:39:53;;;;;;;4.20;2.20;;;;;;;10.40;83.64;98173.71;130551;1262;107394;-80
2023/11/04 08:42:58;;;;;;;4.70;2.50;;;;;;;10.42;83.58;98178.73;130600;1256;107066;-79
2023/11/04 08:46:04;;;;;;;5.10;1.80;;;;;;;10.41;83.55;98182.03;130727;1260;107639;-79
2023/11/04 08:49:10;;;;;;;2.40;1.70;;;;;;;10.39;83.24;98183.73;130449;1260;107697;-79
2023/11/04 08:52:15;;;;;;;3.40;2.00;;;;;;;10.37;83.07;98183.89;130606;1260;107744;-79
2023/11/04 08:55:21;;;;;;;3.10;1.90;;;;;;;10.39;82.95;98187.98;130436;1261;107447;-79
2023/11/04 08:58:27;;;;;;;3.40;1.60;;;;;;;10.44;83.07;98190.02;130412;1271;106620;-79
2023/11/04 09:01:33;;;;;;;3.70;2.00;;;;;;;10.52;83.08;98197.11;131760;1257;107706;-79
2023/11/04 09:04:38;;;;;;;3.10;2.00;;;;;;;10.59;82.57;98198.31;130653;1260;106983;-79
2023/11/04 09:07:44;;;;;;;3.00;2.00;;;;;;;10.70;82.88;98209.52;130460;1256;106822;-79
2023/11/04 09:10:50;;;;;;;7.80;2.00;;;;;;;10.85;82.77;98209.33;130650;1257;106768;-79
2023/11/04 09:13:56;;;;;;;2.90;1.90;;;;;;;10.96;82.36;98206.98;130514;1256;107817;-80
2023/11/04 09:17:02;;;;;;;4.00;1.90;;;;;;;11.03;82.56;98202.66;130547;1262;107822;-79
2023/11/04 09:20:10;;;;;;;3.90;2.00;;;;;;;11.08;81.86;98208.58;130474;1257;106555;-80
2023/11/04 09:23:16;;;;;;;3.70;2.30;;;;;;;11.09;82.09;98207.96;130580;1261;107563;-80
2023/11/04 09:26:22;;;;;;;4.00;2.30;;;;;;;11.15;81.96;98215.58;130616;1262;106970;-80
2023/11/04 09:29:27;;;;;;;5.50;2.10;;;;;;;11.21;82.43;98213.54;130512;1260;107154;-80
2023/11/04 09:32:33;;;;;;;4.00;2.00;;;;;;;11.24;81.94;98207.98;130594;1260;106463;-80
2023/11/04 09:35:39;;;;;;;4.10;2.40;;;;;;;11.27;82.00;98204.78;130571;1260;107231;-80
2023/11/04 09:38:44;;;;;;;5.30;3.40;;;;;;;11.34;81.40;98201.52;130443;1260;106693;-78
2023/11/04 09:41:51;;;;;;;4.70;2.60;;;;;;;11.41;81.35;98199.70;130293;1256;106952;-79
2023/11/04 09:44:57;;;;;;;5.00;2.50;;;;;;;11.48;81.63;98201.68;130450;1262;105571;-78
2023/11/04 09:48:03;;;;;;;4.90;2.20;;;;;;;11.51;81.16;98196.17;130529;1261;107810;-78
2023/11/04 09:51:15;;;;;;;3.90;2.40;;;;;;;11.54;80.99;98186.36;130538;1262;106815;-78
2023/11/04 09:54:22;;;;;;;4.30;2.20;;;;;;;11.57;81.16;98190.77;130497;1262;107541;-78
2023/11/04 09:57:29;;;;;;;3.50;2.10;;;;;;;11.62;80.73;98192.08;130533;1262;106706;-79
2023/11/04 10:00:41;;;;;;;7.40;5.60;;;;;;;11.64;80.52;98197.45;130454;1262;106487;-78
2023/11/04 10:03:47;;;;;;;4.30;2.30;;;;;;;11.60;80.49;98196.90;130872;1260;108055;-78
2023/11/04 10:06:53;;;;;;;3.90;2.10;;;;;;;11.58;80.43;98197.66;130950;1256;107709;-78
2023/11/04 10:09:58;;;;;;;3.80;1.90;;;;;;;11.60;79.71;98192.09;130683;1262;107487;-77
2023/11/04 10:13:07;;;;;;;4.70;2.30;;;;;;;11.61;79.91;98191.46;130517;1260;108694;-78
2023/11/04 10:16:15;;;;;;;4.40;2.20;;;;;;;11.56;79.70;98193.49;130685;1262;107259;-79
2023/11/04 10:19:21;;;;;;;5.30;2.50;;;;;;;11.51;79.68;98193.27;130706;1257;111043;-80
2023/11/04 10:22:28;;;;;;;3.70;2.20;;;;;;;11.49;79.78;98191.13;130542;1262;107543;-78
2023/11/04 10:25:34;;;;;;;3.60;2.40;;;;;;;11.46;79.98;98193.89;131183;1260;107819;-81
2023/11/04 10:28:40;;;;;;;4.60;2.20;;;;;;;11.49;79.97;98198.94;130763;1262;107948;-81
2023/11/04 10:31:49;;;;;;;4.40;2.00;;;;;;;11.55;79.58;98203.64;130921;1262;107563;-80
2023/11/04 10:34:58;;;;;;;5.00;2.80;;;;;;;11.60;79.55;98202.35;130596;1260;107466;-81
2023/11/04 10:38:09;;;;;;;5.70;2.60;;;;;;;11.68;79.40;98203.27;131167;1256;107145;-80
2023/11/04 10:41:18;;;;;;;6.60;2.50;;;;;;;11.77;79.45;98203.16;130726;1262;108363;-79
2023/11/04 10:44:29;;;;;;;6.70;4.10;;;;;;;11.80;79.29;98196.37;131070;1256;181506;-80
2023/11/04 10:47:41;;;;;;;4.90;2.80;;;;;;;11.97;79.26;98203.20;130989;1262;107540;-80
2023/11/04 10:50:55;;;;;;;3.80;2.40;;;;;;;12.13;78.73;98200.65;130695;1257;107117;-80
2023/11/04 10:54:11;;;;;;;5.20;2.30;;;;;;;12.28;78.60;98195.17;130944;1262;107543;-80
2023/11/04 10:57:26;;;;;;;5.00;2.60;;;;;;;12.40;78.38;98190.71;130594;1260;107723;-79
2023/11/04 11:00:35;;;;;;;6.40;3.30;;;;;;;12.41;77.67;98191.04;130560;1268;106437;-80
2023/11/04 11:03:42;;;;;;;4.50;3.30;;;;;;;12.42;77.96;98186.21;131309;1261;107118;-80
2023/11/04 11:06:49;;;;;;;6.20;3.60;;;;;;;12.42;77.56;98181.06;130843;1262;107106;-80
2023/11/04 11:09:56;;;;;;;5.90;3.10;;;;;;;12.46;77.90;98182.03;130717;1260;107645;-80
2023/11/04 11:13:09;;;;;;;4.60;2.60;;;;;;;12.53;77.94;98182.85;130891;1260;108056;-81
2023/11/04 11:16:15;;;;;;;6.70;3.10;;;;;;;12.57;77.47;98175.40;131082;1256;106526;-80
2023/11/04 11:19:21;;;;;;;5.80;2.50;;;;;;;12.61;77.27;98176.98;130703;1262;109103;-81
2023/11/04 11:22:30;;;;;;;6.90;4.00;;;;;;;12.69;76.62;98174.95;130764;1262;106962;-80
2023/11/04 11:25:37;;;;;;;8.30;5.00;;;;;;;12.72;76.88;98174.70;130663;1257;108204;-81
2023/11/04 11:28:45;;;;;;;6.60;3.10;;;;;;;12.78;76.69;98169.94;130796;1257;107353;-80
2023/11/04 11:31:52;;;;;;;6.60;4.30;;;;;;;12.86;76.22;98172.34;130852;1256;107787;-78
2023/11/04 11:34:58;;;;;;;4.70;2.60;;;;;;;12.90;76.38;98181.98;130665;1259;106954;-82
2023/11/04 11:38:05;;;;;;;5.30;2.80;;;;;;;12.92;75.37;98178.85;130573;1262;108161;-79
2023/11/04 11:41:13;;;;;;;4.00;2.60;;;;;;;12.94;75.29;98181.13;130705;1262;106655;-79
2023/11/04 11:44:19;;;;;;;4.80;3.00;;;;;;;13.02;76.06;98183.08;130614;1262;107450;-79
2023/11/04 11:47:27;;;;;;;5.00;2.90;;;;;;;13.04;75.78;98177.88;130661;1260;106853;-79
2023/11/04 11:50:38;;;;;;;4.50;2.60;;;;;;;12.97;75.37;98170.73;130823;1262;106644;-80
2023/11/04 11:53:45;;;;;;;8.20;5.50;;;;;;;12.94;75.63;98169.44;130783;1262;108709;-80
2023/11/04 11:56:51;;;;;;;4.70;3.50;;;;;;;12.89;75.49;98164.45;130593;1262;107595;-79
2023/11/04 11:59:57;;;;;;;4.80;3.20;;;;;;;12.79;75.41;98163.95;130487;1268;106995;-78
2023/11/04 12:03:04;;;;;;;4.10;2.60;;;;;;;12.71;75.46;98169.95;130698;1262;107586;-78
2023/11/04 12:06:13;;;;;;;7.00;3.00;;;;;;;12.65;75.17;98167.53;130581;1260;108592;-79
2023/11/04 12:09:22;;;;;;;5.00;2.30;;;;;;;12.65;75.26;98167.23;130661;1261;107121;-79
2023/11/04 12:12:28;;;;;;;4.50;3.10;;;;;;;12.69;75.42;98169.80;130796;1260;108604;-80
2023/11/04 12:15:33;;;;;;;5.70;4.10;;;;;;;12.70;74.89;98167.53;130872;1257;107539;-82
2023/11/04 12:18:39;;;;;;;5.00;2.70;;;;;;;12.63;74.17;98166.61;130683;1262;107608;-81
2023/11/04 12:21:45;;;;;;;5.20;2.70;;;;;;;12.59;74.45;98172.67;130999;1260;107446;-82
2023/11/04 12:24:51;;;;;;;5.30;2.70;;;;;;;12.62;74.99;98167.81;131135;1257;108621;-80
2023/11/04 12:28:01;;;;;;;5.20;2.80;;;;;;;12.64;74.90;98165.60;130918;1260;106936;-80
2023/11/04 12:31:07;;;;;;;3.80;2.50;;;;;;;12.63;74.77;98166.10;130846;1258;108211;-82
2023/11/04 12:34:13;;;;;;;4.00;2.60;;;;;;;12.58;74.70;98167.83;130644;1258;107568;-80
2023/11/04 12:37:19;;;;;;;3.90;2.50;;;;;;;12.52;74.45;98169.30;130496;1256;107590;-80
2023/11/04 12:40:29;;;;;;;5.80;3.40;;;;;;;12.43;74.62;98165.89;130650;1260;108437;-81
2023/11/04 12:43:36;;;;;;;3.80;2.50;;;;;;;12.36;74.64;98158.36;130930;1262;108656;-81
2023/11/04 12:46:42;;;;;;;3.20;2.70;;;;;;;12.36;74.51;98158.81;131018;1262;106446;-81
2023/11/04 12:49:49;;;;;;;6.00;3.70;;;;;;;12.34;74.41;98152.98;134654;1257;107675;-82
2023/11/04 12:53:01;;;;;;;5.40;2.90;;;;;;;12.32;74.08;98155.46;131998;1260;107846;-81
2023/11/04 12:56:09;;;;;;;4.40;2.60;;;;;;;12.30;74.26;98148.28;131137;1257;107934;-81
2023/11/04 12:59:15;;;;;;;4.50;2.60;;;;;;;12.27;74.09;98147.01;130797;1262;108397;-80
2023/11/04 13:02:21;;;;;;;4.30;2.60;;;;;;;12.24;73.89;98143.42;132177;1260;109081;-81
2023/11/04 13:05:28;;;;;;;4.60;2.70;;;;;;;12.19;74.03;98140.98;130630;1262;106672;-81
2023/11/04 13:08:34;;;;;;;2.90;2.20;;;;;;;12.25;73.81;98140.77;130759;1256;106608;-82
2023/11/04 13:11:40;;;;;;;6.30;2.70;;;;;;;12.27;73.65;98139.08;130828;1260;108689;-80
2023/11/04 13:14:45;;;;;;;3.40;2.20;;;;;;;12.20;73.52;98138.55;130799;1262;107923;-80
2023/11/04 13:17:51;;;;;;;5.40;2.20;;;;;;;12.13;73.33;98136.86;130550;1260;107759;-81
2023/11/04 13:20:57;;;;;;;5.70;3.80;;;;;;;12.03;73.34;98136.14;130847;1262;108494;-81
2023/11/04 13:24:03;;;;;;;7.30;4.30;;;;;;;11.91;73.15;98132.79;130936;1257;106745;-82
2023/11/04 13:27:08;;;;;;;4.90;3.40;;;;;;;11.83;73.06;98126.71;130992;1260;108257;-81
2023/11/04 13:30:16;;;;;;;4.90;2.70;;;;;;;11.78;73.03;98126.42;130888;1262;107632;-81
2023/11/04 13:33:21;;;;;;;4.60;2.40;;;;;;;11.74;72.87;98119.98;130942;1262;108478;-81
2023/11/04 13:36:28;;;;;;;4.30;2.70;;;;;;;11.67;73.07;98118.13;131038;1262;106985;-80
2023/11/04 13:39:33;;;;;;;5.00;2.90;;;;;;;11.56;73.16;98118.53;130804;1262;106863;-81
2023/11/04 13:42:39;;;;;;;4.10;2.60;;;;;;;11.48;72.98;98113.19;130911;1261;106980;-81
2023/11/04 13:45:45;;;;;;;4.80;2.90;;;;;;;11.43;73.23;98118.38;130790;1262;106958;-81
2023/11/04 13:48:51;;;;;;;6.40;3.10;;;;;;;11.39;73.20;98117.66;130649;1261;107685;-81
2023/11/04 13:51:57;;;;;;;6.10;2.60;;;;;;;11.35;73.27;98121.62;130736;1256;107937;-81
2023/11/04 13:55:03;;;;;;;4.80;2.70;;;;;;;11.31;73.21;98125.11;130656;1260;107759;-81
2023/11/04 13:58:09;;;;;;;6.00;2.80;;;;;;;11.27;72.81;98123.41;130610;1260;107793;-82
2023/11/04 14:01:14;;;;;;;4.10;2.70;;;;;;;11.23;72.99;98121.91;130711;1257;107103;-81
2023/11/04 14:04:20;;;;;;;20.20;14.80;;;;;;;11.18;73.01;98117.85;130837;1260;107757;-80
2023/11/04 14:07:26;;;;;;;13.10;10.10;;;;;;;11.14;73.01;98116.41;130582;1262;106436;-80
2023/11/04 14:10:32;;;;;;;18.10;13.70;;;;;;;11.09;73.07;98121.41;130631;1265;107816;-80
2023/11/04 14:13:38;;;;;;;21.70;13.40;;;;;;;11.05;73.14;98124.82;130514;1270;109632;-82
2023/11/04 14:16:43;;;;;;;22.70;13.50;;;;;;;11.01;72.94;98122.48;130627;1259;107686;-81
2023/11/04 14:19:49;;;;;;;14.60;8.30;;;;;;;10.96;73.21;98115.23;130605;1256;108390;-81